Terminal Aerodrome Forecast
Issued by NWS

Home | Current Version | Previous Version | Text Only | Print | Product List | Glossary On
Versions: 1 2 3 4 5 6 7 8 9 10 11 12 13 14
000
FTUS42 KTBW 051126
TAFPGD
TAF
KPGD 051126Z 0512/0612 05008KT P6SM SCT050 BKN250
     FM051400 09013G20KT P6SM SCT030 BKN050
     FM051700 09013G20KT P6SM VCSH SCT030 BKN050
     FM060100 07008KT P6SM SCT050 BKN250
     FM060600 04005KT P6SM SCT020 SCT050 BKN250=

USA.gov is the U.S. government's official web portal to all federal, state and local government web resources and services.